sensor_id;sensor_type;location;lat;lon;timestamp;pressure;altitude;pressure_sealevel;temperature;humidity
31771;BME280;18343;50.152;8.182;2023-03-01T00:01:31;98472.75;;;-0.19;54.20
31771;BME280;18343;50.152;8.182;2023-03-01T00:04:15;98466.81;;;-0.22;54.18
31771;BME280;18343;50.152;8.182;2023-03-01T00:07:01;98474.09;;;-0.26;53.91
31771;BME280;18343;50.152;8.182;2023-03-01T00:10:04;98475.88;;;-0.26;54.93
31771;BME280;18343;50.152;8.182;2023-03-01T00:13:04;98473.03;;;-0.23;54.48
31771;BME280;18343;50.152;8.182;2023-03-01T00:16:21;98476.16;;;-0.17;54.87
31771;BME280;18343;50.152;8.182;2023-03-01T00:19:09;98467.56;;;-0.20;54.27
31771;BME280;18343;50.152;8.182;2023-03-01T00:21:55;98475.78;;;-0.25;54.67
31771;BME280;18343;50.152;8.182;2023-03-01T00:24:41;98475.88;;;-0.26;54.50
31771;BME280;18343;50.152;8.182;2023-03-01T00:27:26;98473.47;;;-0.29;54.89
31771;BME280;18343;50.152;8.182;2023-03-01T00:30:11;98470.06;;;-0.31;55.08
31771;BME280;18343;50.152;8.182;2023-03-01T00:32:56;98468.47;;;-0.34;54.87
31771;BME280;18343;50.152;8.182;2023-03-01T00:35:40;98471.88;;;-0.32;55.22
31771;BME280;18343;50.152;8.182;2023-03-01T00:38:25;98462.44;;;-0.36;54.90
31771;BME280;18343;50.152;8.182;2023-03-01T00:41:14;98466.31;;;-0.42;54.75
31771;BME280;18343;50.152;8.182;2023-03-01T00:43:59;98458.78;;;-0.48;55.20
31771;BME280;18343;50.152;8.182;2023-03-01T00:46:45;98460.38;;;-0.45;55.54
31771;BME280;18343;50.152;8.182;2023-03-01T00:49:32;98454.81;;;-0.41;55.92
31771;BME280;18343;50.152;8.182;2023-03-01T00:52:17;98448.56;;;-0.40;56.11
31771;BME280;18343;50.152;8.182;2023-03-01T00:55:02;98444.69;;;-0.34;56.21
31771;BME280;18343;50.152;8.182;2023-03-01T00:57:49;98445.84;;;-0.38;57.11
31771;BME280;18343;50.152;8.182;2023-03-01T01:00:33;98441.69;;;-0.42;56.46
31771;BME280;18343;50.152;8.182;2023-03-01T01:03:22;98442.94;;;-0.48;56.36
31771;BME280;18343;50.152;8.182;2023-03-01T01:06:14;98437.66;;;-0.48;56.33
31771;BME280;18343;50.152;8.182;2023-03-01T01:09:04;98435.09;;;-0.49;56.02
31771;BME280;18343;50.152;8.182;2023-03-01T01:12:04;98436.91;;;-0.50;56.29
31771;BME280;18343;50.152;8.182;2023-03-01T01:14:51;98434.44;;;-0.53;56.05
31771;BME280;18343;50.152;8.182;2023-03-01T01:17:35;98424.31;;;-0.59;56.20
31771;BME280;18343;50.152;8.182;2023-03-01T01:20:20;98434.88;;;-0.59;56.49
31771;BME280;18343;50.152;8.182;2023-03-01T01:23:08;98428.56;;;-0.56;56.81
31771;BME280;18343;50.152;8.182;2023-03-01T01:25:53;98427.69;;;-0.57;56.58
31771;BME280;18343;50.152;8.182;2023-03-01T01:28:38;98414.25;;;-0.54;56.80
31771;BME280;18343;50.152;8.182;2023-03-01T01:31:31;98422.00;;;-0.51;57.27
31771;BME280;18343;50.152;8.182;2023-03-01T01:34:18;98412.69;;;-0.56;57.13
31771;BME280;18343;50.152;8.182;2023-03-01T01:37:02;98404.97;;;-0.59;57.35
31771;BME280;18343;50.152;8.182;2023-03-01T01:39:47;98404.03;;;-0.58;57.44
31771;BME280;18343;50.152;8.182;2023-03-01T01:42:32;98392.63;;;-0.59;57.33
31771;BME280;18343;50.152;8.182;2023-03-01T01:45:29;98396.94;;;-0.58;57.24
31771;BME280;18343;50.152;8.182;2023-03-01T01:48:22;98388.28;;;-0.60;57.48
31771;BME280;18343;50.152;8.182;2023-03-01T01:51:14;98387.44;;;-0.60;57.64
31771;BME280;18343;50.152;8.182;2023-03-01T01:54:01;98389.03;;;-0.58;57.74
31771;BME280;18343;50.152;8.182;2023-03-01T01:56:54;98395.69;;;-0.52;57.88
31771;BME280;18343;50.152;8.182;2023-03-01T01:59:47;98395.56;;;-0.51;58.14
31771;BME280;18343;50.152;8.182;2023-03-01T02:02:36;98400.88;;;-0.51;57.97
31771;BME280;18343;50.152;8.182;2023-03-01T02:05:35;98393.69;;;-0.49;58.18
31771;BME280;18343;50.152;8.182;2023-03-01T02:08:23;98392.09;;;-0.51;58.33
31771;BME280;18343;50.152;8.182;2023-03-01T02:11:11;98398.97;;;-0.49;58.42
31771;BME280;18343;50.152;8.182;2023-03-01T02:13:57;98394.63;;;-0.50;58.34
31771;BME280;18343;50.152;8.182;2023-03-01T02:16:42;98389.44;;;-0.51;58.69
31771;BME280;18343;50.152;8.182;2023-03-01T02:19:43;98391.88;;;-0.48;58.69
31771;BME280;18343;50.152;8.182;2023-03-01T02:22:36;98390.28;;;-0.51;58.94
31771;BME280;18343;50.152;8.182;2023-03-01T02:25:36;98399.16;;;-0.52;58.91
31771;BME280;18343;50.152;8.182;2023-03-01T02:28:31;98391.56;;;-0.56;59.50
31771;BME280;18343;50.152;8.182;2023-03-01T02:31:19;98390.91;;;-0.60;59.18
31771;BME280;18343;50.152;8.182;2023-03-01T02:34:05;98390.91;;;-0.60;59.51
31771;BME280;18343;50.152;8.182;2023-03-01T02:36:54;98383.53;;;-0.55;59.50
31771;BME280;18343;50.152;8.182;2023-03-01T02:39:45;98377.84;;;-0.49;59.62
31771;BME280;18343;50.152;8.182;2023-03-01T02:42:36;98379.72;;;-0.51;60.31
31771;BME280;18343;50.152;8.182;2023-03-01T02:45:27;98375.06;;;-0.60;60.92
31771;BME280;18343;50.152;8.182;2023-03-01T02:48:12;98370.72;;;-0.61;59.92
31771;BME280;18343;50.152;8.182;2023-03-01T02:51:05;98354.88;;;-0.61;60.00
31771;BME280;18343;50.152;8.182;2023-03-01T02:54:03;98358.47;;;-0.62;60.15
31771;BME280;18343;50.152;8.182;2023-03-01T02:56:52;98352.25;;;-0.61;60.35
31771;BME280;18343;50.152;8.182;2023-03-01T02:59:37;98353.84;;;-0.58;60.41
31771;BME280;18343;50.152;8.182;2023-03-01T03:02:27;98348.44;;;-0.57;60.45
31771;BME280;18343;50.152;8.182;2023-03-01T03:05:16;98345.59;;;-0.54;60.60
31771;BME280;18343;50.152;8.182;2023-03-01T03:08:04;98333.13;;;-0.52;60.96
31771;BME280;18343;50.152;8.182;2023-03-01T03:10:48;98330.47;;;-0.52;60.79
31771;BME280;18343;50.152;8.182;2023-03-01T03:13:33;98335.75;;;-0.52;60.58
31771;BME280;18343;50.152;8.182;2023-03-01T03:16:20;98331.53;;;-0.54;60.71
31771;BME280;18343;50.152;8.182;2023-03-01T03:19:07;98323.59;;;-0.54;61.13
31771;BME280;18343;50.152;8.182;2023-03-01T03:21:52;98329.13;;;-0.57;60.63
31771;BME280;18343;50.152;8.182;2023-03-01T03:24:54;98333.66;;;-0.59;60.87
31771;BME280;18343;50.152;8.182;2023-03-01T03:27:41;98326.69;;;-0.60;60.75
31771;BME280;18343;50.152;8.182;2023-03-01T03:30:29;98318.84;;;-0.62;61.30
31771;BME280;18343;50.152;8.182;2023-03-01T03:33:14;98318.94;;;-0.63;61.30
31771;BME280;18343;50.152;8.182;2023-03-01T03:36:00;98326.03;;;-0.64;60.94
31771;BME280;18343;50.152;8.182;2023-03-01T03:38:45;98323.22;;;-0.75;60.18
31771;BME280;18343;50.152;8.182;2023-03-01T03:41:30;98317.50;;;-0.82;60.55
31771;BME280;18343;50.152;8.182;2023-03-01T03:44:14;98306.22;;;-0.84;61.29
31771;BME280;18343;50.152;8.182;2023-03-01T03:46:59;98300.84;;;-0.82;61.07
31771;BME280;18343;50.152;8.182;2023-03-01T03:49:44;98294.06;;;-0.86;61.41
31771;BME280;18343;50.152;8.182;2023-03-01T03:52:30;98294.38;;;-0.91;61.08
31771;BME280;18343;50.152;8.182;2023-03-01T03:55:15;98286.94;;;-0.98;61.36
31771;BME280;18343;50.152;8.182;2023-03-01T03:58:02;98289.56;;;-0.98;61.64
31771;BME280;18343;50.152;8.182;2023-03-01T04:00:49;98292.00;;;-0.95;61.80
31771;BME280;18343;50.152;8.182;2023-03-01T04:04:13;98289.19;;;-0.92;61.64
31771;BME280;18343;50.152;8.182;2023-03-01T04:06:58;98297.69;;;-1.02;61.07
31771;BME280;18343;50.152;8.182;2023-03-01T04:09:44;98290.91;;;-1.06;61.77
31771;BME280;18343;50.152;8.182;2023-03-01T04:12:32;98285.63;;;-1.06;61.94
31771;BME280;18343;50.152;8.182;2023-03-01T04:15:17;98292.72;;;-1.06;62.21
31771;BME280;18343;50.152;8.182;2023-03-01T04:18:02;98289.97;;;-1.05;62.17
31771;BME280;18343;50.152;8.182;2023-03-01T04:20:47;98297.69;;;-1.02;62.49
31771;BME280;18343;50.152;8.182;2023-03-01T04:23:32;98296.53;;;-0.97;62.84
31771;BME280;18343;50.152;8.182;2023-03-01T04:26:19;98306.06;;;-0.95;63.00
31771;BME280;18343;50.152;8.182;2023-03-01T04:32:12;98296.50;;;-1.10;62.88
31771;BME280;18343;50.152;8.182;2023-03-01T04:34:56;98300.19;;;-1.13;63.01
31771;BME280;18343;50.152;8.182;2023-03-01T04:37:41;98295.88;;;-1.14;62.77
31771;BME280;18343;50.152;8.182;2023-03-01T04:40:26;98298.03;;;-1.20;62.37
31771;BME280;18343;50.152;8.182;2023-03-01T04:43:13;98294.94;;;-1.27;62.62
31771;BME280;18343;50.152;8.182;2023-03-01T04:46:01;98297.78;;;-1.30;62.87
31771;BME280;18343;50.152;8.182;2023-03-01T04:48:46;98298.53;;;-1.28;63.43
31771;BME280;18343;50.152;8.182;2023-03-01T04:51:48;98298.25;;;-1.23;63.26
31771;BME280;18343;50.152;8.182;2023-03-01T04:54:34;98293.06;;;-1.25;63.70
31771;BME280;18343;50.152;8.182;2023-03-01T04:57:19;98296.44;;;-1.23;63.63
31771;BME280;18343;50.152;8.182;2023-03-01T05:00:08;98293.91;;;-1.24;63.69
31771;BME280;18343;50.152;8.182;2023-03-01T05:02:56;98284.38;;;-1.27;63.71
31771;BME280;18343;50.152;8.182;2023-03-01T05:05:48;98285.34;;;-1.28;63.29
31771;BME280;18343;50.152;8.182;2023-03-01T05:08:35;98282.31;;;-1.36;63.37
31771;BME280;18343;50.152;8.182;2023-03-01T05:11:20;98290.25;;;-1.36;63.94
31771;BME280;18343;50.152;8.182;2023-03-01T05:14:07;98296.50;;;-1.37;63.47
31771;BME280;18343;50.152;8.182;2023-03-01T05:17:11;98292.34;;;-1.41;63.01
31771;BME280;18343;50.152;8.182;2023-03-01T05:19:55;98283.78;;;-1.45;63.88
31771;BME280;18343;50.152;8.182;2023-03-01T05:22:40;98281.81;;;-1.41;64.06
31771;BME280;18343;50.152;8.182;2023-03-01T05:25:25;98275.50;;;-1.39;64.36
31771;BME280;18343;50.152;8.182;2023-03-01T05:28:11;98279.59;;;-1.34;65.07
31771;BME280;18343;50.152;8.182;2023-03-01T05:30:57;98273.28;;;-1.32;64.85
31771;BME280;18343;50.152;8.182;2023-03-01T05:33:43;98272.03;;;-1.26;65.49
31771;BME280;18343;50.152;8.182;2023-03-01T05:36:28;98265.63;;;-1.22;65.52
31771;BME280;18343;50.152;8.182;2023-03-01T05:39:24;98268.72;;;-1.16;65.49
31771;BME280;18343;50.152;8.182;2023-03-01T05:42:13;98272.97;;;-1.13;65.74
31771;BME280;18343;50.152;8.182;2023-03-01T05:45:09;98272.75;;;-1.10;66.20
31771;BME280;18343;50.152;8.182;2023-03-01T05:47:54;98278.03;;;-1.10;65.79
31771;BME280;18343;50.152;8.182;2023-03-01T05:53:55;98272.53;;;-1.07;66.46
31771;BME280;18343;50.152;8.182;2023-03-01T06:07:50;98261.28;;;-0.96;66.33
31771;BME280;18343;50.152;8.182;2023-03-01T06:09:02;98258.84;;;-0.99;66.04
31771;BME280;18343;50.152;8.182;2023-03-01T06:11:49;98266.50;;;-1.09;66.48
31771;BME280;18343;50.152;8.182;2023-03-01T06:14:35;98270.13;;;-1.10;67.42
31771;BME280;18343;50.152;8.182;2023-03-01T06:17:19;98265.56;;;-1.08;67.29
31771;BME280;18343;50.152;8.182;2023-03-01T06:20:06;98264.50;;;-1.06;67.88
31771;BME280;18343;50.152;8.182;2023-03-01T06:22:59;98273.75;;;-0.98;68.25
31771;BME280;18343;50.152;8.182;2023-03-01T06:26:08;98266.47;;;-0.95;67.49
31771;BME280;18343;50.152;8.182;2023-03-01T06:29:25;98271.94;;;-0.98;67.73
31771;BME280;18343;50.152;8.182;2023-03-01T06:32:10;98261.47;;;-0.99;68.35
31771;BME280;18343;50.152;8.182;2023-03-01T06:34:55;98261.47;;;-0.99;68.14
31771;BME280;18343;50.152;8.182;2023-03-01T06:37:40;98261.59;;;-1.01;68.27
31771;BME280;18343;50.152;8.182;2023-03-01T06:40:29;98254.22;;;-0.96;69.21
31771;BME280;18343;50.152;8.182;2023-03-01T06:43:23;98253.50;;;-0.85;69.40
31771;BME280;18343;50.152;8.182;2023-03-01T06:46:10;98249.09;;;-0.85;69.02
31771;BME280;18343;50.152;8.182;2023-03-01T06:48:55;98251.38;;;-0.80;69.28
31771;BME280;18343;50.152;8.182;2023-03-01T06:51:40;98256.16;;;-0.73;70.26
31771;BME280;18343;50.152;8.182;2023-03-01T06:54:34;98259.06;;;-0.63;70.00
31771;BME280;18343;50.152;8.182;2023-03-01T06:57:25;98250.91;;;-0.60;70.37
31771;BME280;18343;50.152;8.182;2023-03-01T07:03:01;98245.03;;;-0.38;71.22
31771;BME280;18343;50.152;8.182;2023-03-01T07:05:48;98245.56;;;-0.33;70.80
31771;BME280;18343;50.152;8.182;2023-03-01T07:08:35;98243.56;;;-0.29;71.31
31771;BME280;18343;50.152;8.182;2023-03-01T07:11:30;98241.84;;;-0.18;71.64
31771;BME280;18343;50.152;8.182;2023-03-01T07:14:27;98248.50;;;-0.12;71.25
31771;BME280;18343;50.152;8.182;2023-03-01T07:17:27;98246.28;;;-0.06;71.34
31771;BME280;18343;50.152;8.182;2023-03-01T07:20:13;98251.25;;;-0.01;71.83
31771;BME280;18343;50.152;8.182;2023-03-01T07:23:07;98247.00;;;0.09;72.50
31771;BME280;18343;50.152;8.182;2023-03-01T07:25:55;98255.34;;;0.16;72.02
31771;BME280;18343;50.152;8.182;2023-03-01T07:28:40;98254.81;;;0.23;72.40
31771;BME280;18343;50.152;8.182;2023-03-01T07:31:38;98249.91;;;0.30;72.73
31771;BME280;18343;50.152;8.182;2023-03-01T07:34:27;98241.44;;;0.38;72.64
31771;BME280;18343;50.152;8.182;2023-03-01T07:37:19;98238.25;;;0.45;72.84
31771;BME280;18343;50.152;8.182;2023-03-01T07:40:09;98229.03;;;0.51;73.20
31771;BME280;18343;50.152;8.182;2023-03-01T07:42:56;98242.66;;;0.57;73.13
31771;BME280;18343;50.152;8.182;2023-03-01T07:45:41;98233.44;;;0.63;73.42
31771;BME280;18343;50.152;8.182;2023-03-01T07:48:36;98227.38;;;0.74;73.75
31771;BME280;18343;50.152;8.182;2023-03-01T07:51:22;98227.66;;;0.82;74.54
31771;BME280;18343;50.152;8.182;2023-03-01T07:54:07;98226.84;;;0.92;74.85
31771;BME280;18343;50.152;8.182;2023-03-01T07:56:54;98227.88;;;1.02;74.80
31771;BME280;18343;50.152;8.182;2023-03-01T07:59:40;98233.19;;;1.14;75.15
31771;BME280;18343;50.152;8.182;2023-03-01T08:02:37;98228.91;;;1.24;75.50
31771;BME280;18343;50.152;8.182;2023-03-01T08:05:25;98225.56;;;1.33;75.69
31771;BME280;18343;50.152;8.182;2023-03-01T08:08:39;98221.88;;;1.47;75.79
31771;BME280;18343;50.152;8.182;2023-03-01T08:11:30;98211.66;;;1.53;76.00
31771;BME280;18343;50.152;8.182;2023-03-01T08:14:14;98226.34;;;1.57;75.47
31771;BME280;18343;50.152;8.182;2023-03-01T08:16:59;98221.44;;;1.64;75.89
31771;BME280;18343;50.152;8.182;2023-03-01T08:19:49;98225.28;;;1.71;76.13
31771;BME280;18343;50.152;8.182;2023-03-01T08:22:34;98219.28;;;1.80;76.57
31771;BME280;18343;50.152;8.182;2023-03-01T08:25:20;98224.59;;;1.91;76.13
31771;BME280;18343;50.152;8.182;2023-03-01T08:28:07;98217.47;;;1.92;76.41
31771;BME280;18343;50.152;8.182;2023-03-01T08:30:51;98216.03;;;1.99;76.23
31771;BME280;18343;50.152;8.182;2023-03-01T08:33:36;98214.81;;;2.03;76.47
31771;BME280;18343;50.152;8.182;2023-03-01T08:36:25;98230.16;;;2.11;76.47
31771;BME280;18343;50.152;8.182;2023-03-01T08:39:20;98221.84;;;2.15;76.63
31771;BME280;18343;50.152;8.182;2023-03-01T08:42:24;98213.84;;;2.26;76.92
31771;BME280;18343;50.152;8.182;2023-03-01T08:45:15;98214.34;;;2.31;76.76
31771;BME280;18343;50.152;8.182;2023-03-01T08:48:15;98210.84;;;2.42;76.60
31771;BME280;18343;50.152;8.182;2023-03-01T08:51:20;98203.84;;;2.41;76.60
31771;BME280;18343;50.152;8.182;2023-03-01T08:54:12;98205.34;;;2.55;77.05
31771;BME280;18343;50.152;8.182;2023-03-01T08:57:16;98199.31;;;2.64;76.72
31771;BME280;18343;50.152;8.182;2023-03-01T09:00:07;98187.59;;;2.66;76.80
31771;BME280;18343;50.152;8.182;2023-03-01T09:02:55;98187.69;;;2.76;77.10
31771;BME280;18343;50.152;8.182;2023-03-01T09:05:40;98185.63;;;2.80;77.22
31771;BME280;18343;50.152;8.182;2023-03-01T09:08:31;98190.19;;;2.89;77.41
31771;BME280;18343;50.152;8.182;2023-03-01T09:11:21;98192.47;;;2.93;77.51
31771;BME280;18343;50.152;8.182;2023-03-01T09:14:06;98189.69;;;2.95;77.50
31771;BME280;18343;50.152;8.182;2023-03-01T09:16:53;98187.94;;;3.05;77.09
31771;BME280;18343;50.152;8.182;2023-03-01T09:19:40;98191.06;;;3.10;77.15
31771;BME280;18343;50.152;8.182;2023-03-01T09:22:25;98183.47;;;3.05;77.09
31771;BME280;18343;50.152;8.182;2023-03-01T09:25:10;98179.66;;;2.98;77.39
31771;BME280;18343;50.152;8.182;2023-03-01T09:27:55;98165.25;;;3.01;77.41
31771;BME280;18343;50.152;8.182;2023-03-01T09:30:40;98175.69;;;3.14;77.57
31771;BME280;18343;50.152;8.182;2023-03-01T09:33:26;98171.94;;;3.37;76.70
31771;BME280;18343;50.152;8.182;2023-03-01T09:36:24;98178.91;;;3.49;77.11
31771;BME280;18343;50.152;8.182;2023-03-01T09:39:08;98178.94;;;3.59;77.12
31771;BME280;18343;50.152;8.182;2023-03-01T09:42:03;98178.88;;;3.70;77.03
31771;BME280;18343;50.152;8.182;2023-03-01T09:44:57;98171.22;;;3.77;77.20
31771;BME280;18343;50.152;8.182;2023-03-01T09:47:44;98164.28;;;3.95;76.93
31771;BME280;18343;50.152;8.182;2023-03-01T09:50:35;98168.13;;;4.12;77.08
31771;BME280;18343;50.152;8.182;2023-03-01T09:53:28;98156.41;;;4.24;76.11
31771;BME280;18343;50.152;8.182;2023-03-01T09:56:27;98159.81;;;4.35;76.75
31771;BME280;18343;50.152;8.182;2023-03-01T09:59:29;98162.06;;;4.40;75.81
31771;BME280;18343;50.152;8.182;2023-03-01T10:02:37;98153.16;;;4.60;76.71
31771;BME280;18343;50.152;8.182;2023-03-01T10:05:39;98148.13;;;4.76;75.96
31771;BME280;18343;50.152;8.182;2023-03-01T10:08:40;98154.88;;;4.90;75.64
31771;BME280;18343;50.152;8.182;2023-03-01T10:11:38;98152.59;;;4.95;75.31
31771;BME280;18343;50.152;8.182;2023-03-01T10:14:32;98143.63;;;5.06;75.65
31771;BME280;18343;50.152;8.182;2023-03-01T10:17:33;98143.91;;;5.13;75.62
31771;BME280;18343;50.152;8.182;2023-03-01T10:20:25;98142.94;;;5.14;75.17
31771;BME280;18343;50.152;8.182;2023-03-01T10:23:13;98140.41;;;5.12;75.59
31771;BME280;18343;50.152;8.182;2023-03-01T10:26:17;98138.69;;;5.21;75.56
31771;BME280;18343;50.152;8.182;2023-03-01T10:29:08;98131.44;;;5.13;74.25
31771;BME280;18343;50.152;8.182;2023-03-01T10:31:59;98132.66;;;5.38;74.46
31771;BME280;18343;50.152;8.182;2023-03-01T10:34:49;98125.31;;;5.50;73.93
31771;BME280;18343;50.152;8.182;2023-03-01T10:37:36;98116.88;;;5.54;73.78
31771;BME280;18343;50.152;8.182;2023-03-01T10:40:51;98119.53;;;5.64;71.97
31771;BME280;18343;50.152;8.182;2023-03-01T10:43:45;98124.25;;;5.79;73.19
31771;BME280;18343;50.152;8.182;2023-03-01T10:46:33;98121.56;;;5.79;72.58
31771;BME280;18343;50.152;8.182;2023-03-01T10:49:25;98115.66;;;5.86;72.12
31771;BME280;18343;50.152;8.182;2023-03-01T10:55:43;98108.78;;;6.20;72.60
31771;BME280;18343;50.152;8.182;2023-03-01T10:58:30;98111.03;;;6.25;72.24
31771;BME280;18343;50.152;8.182;2023-03-01T11:01:46;98100.19;;;6.26;70.34
31771;BME280;18343;50.152;8.182;2023-03-01T11:04:59;98090.47;;;6.53;71.53
31771;BME280;18343;50.152;8.182;2023-03-01T11:07:50;98087.09;;;6.51;69.73
31771;BME280;18343;50.152;8.182;2023-03-01T11:10:38;98090.31;;;6.54;69.30
31771;BME280;18343;50.152;8.182;2023-03-01T11:13:32;98095.81;;;6.70;69.51
31771;BME280;18343;50.152;8.182;2023-03-01T11:16:25;98077.19;;;6.78;66.62
31771;BME280;18343;50.152;8.182;2023-03-01T11:19:21;98075.41;;;6.87;68.22
31771;BME280;18343;50.152;8.182;2023-03-01T11:22:12;98081.53;;;6.97;69.21
31771;BME280;18343;50.152;8.182;2023-03-01T11:24:58;98085.72;;;7.00;67.35
31771;BME280;18343;50.152;8.182;2023-03-01T11:27:47;98076.09;;;7.07;67.48
31771;BME280;18343;50.152;8.182;2023-03-01T11:30:40;98070.00;;;7.23;67.80
31771;BME280;18343;50.152;8.182;2023-03-01T11:33:37;98066.88;;;7.27;67.39
31771;BME280;18343;50.152;8.182;2023-03-01T11:36:31;98064.03;;;7.29;66.58
31771;BME280;18343;50.152;8.182;2023-03-01T11:39:27;98050.91;;;7.43;65.99
31771;BME280;18343;50.152;8.182;2023-03-01T11:42:24;98045.25;;;7.46;64.24
31771;BME280;18343;50.152;8.182;2023-03-01T11:45:12;98052.56;;;7.36;64.60
31771;BME280;18343;50.152;8.182;2023-03-01T11:48:25;98045.41;;;7.45;64.04
31771;BME280;18343;50.152;8.182;2023-03-01T11:51:20;98038.81;;;7.57;64.39
31771;BME280;18343;50.152;8.182;2023-03-01T11:54:18;98033.50;;;7.65;64.57
31771;BME280;18343;50.152;8.182;2023-03-01T11:57:16;98035.09;;;7.84;63.25
31771;BME280;18343;50.152;8.182;2023-03-01T12:00:22;98026.06;;;7.93;63.33
31771;BME280;18343;50.152;8.182;2023-03-01T12:03:28;98024.06;;;7.95;62.61
31771;BME280;18343;50.152;8.182;2023-03-01T12:06:32;98019.78;;;8.10;62.21
31771;BME280;18343;50.152;8.182;2023-03-01T12:09:35;98018.28;;;8.16;62.04
31771;BME280;18343;50.152;8.182;2023-03-01T12:12:34;98007.41;;;8.18;60.53
31771;BME280;18343;50.152;8.182;2023-03-01T12:16:00;97998.88;;;8.14;60.50
31771;BME280;18343;50.152;8.182;2023-03-01T12:19:20;98000.22;;;8.18;59.72
31771;BME280;18343;50.152;8.182;2023-03-01T12:22:25;97994.00;;;8.26;58.58
31771;BME280;18343;50.152;8.182;2023-03-01T12:25:25;97987.56;;;8.44;59.52
31771;BME280;18343;50.152;8.182;2023-03-01T12:28:39;97994.78;;;8.44;55.63
31771;BME280;18343;50.152;8.182;2023-03-01T12:32:09;97984.53;;;8.56;58.14
31771;BME280;18343;50.152;8.182;2023-03-01T12:35:14;97986.06;;;8.66;57.95
31771;BME280;18343;50.152;8.182;2023-03-01T12:38:19;97977.84;;;8.60;56.96
31771;BME280;18343;50.152;8.182;2023-03-01T12:41:42;97970.31;;;8.63;55.88
31771;BME280;18343;50.152;8.182;2023-03-01T12:44:47;97969.47;;;8.63;56.32
31771;BME280;18343;50.152;8.182;2023-03-01T12:47:58;97962.94;;;8.81;56.08
31771;BME280;18343;50.152;8.182;2023-03-01T12:50:53;97956.72;;;8.89;55.92
31771;BME280;18343;50.152;8.182;2023-03-01T12:53:45;97951.53;;;8.96;55.28
31771;BME280;18343;50.152;8.182;2023-03-01T12:56:32;97949.00;;;8.94;55.07
31771;BME280;18343;50.152;8.182;2023-03-01T12:59:24;97952.38;;;8.80;53.62
31771;BME280;18343;50.152;8.182;2023-03-01T13:02:18;97950.38;;;8.74;53.07
31771;BME280;18343;50.152;8.182;2023-03-01T13:05:34;97943.31;;;8.48;50.82
31771;BME280;18343;50.152;8.182;2023-03-01T13:08:29;97940.28;;;8.92;52.92
31771;BME280;18343;50.152;8.182;2023-03-01T13:11:17;97941.41;;;9.14;53.12
31771;BME280;18343;50.152;8.182;2023-03-01T13:14:50;97931.03;;;9.11;52.23
31771;BME280;18343;50.152;8.182;2023-03-01T13:17:41;97936.78;;;8.92;52.00
31771;BME280;18343;50.152;8.182;2023-03-01T13:20:35;97935.75;;;9.01;51.75
31771;BME280;18343;50.152;8.182;2023-03-01T13:23:37;97933.53;;;9.12;51.55
31771;BME280;18343;50.152;8.182;2023-03-01T13:26:30;97933.53;;;9.21;51.48
31771;BME280;18343;50.152;8.182;2023-03-01T13:29:26;97927.00;;;9.15;49.79
31771;BME280;18343;50.152;8.182;2023-03-01T13:32:22;97922.31;;;9.17;50.56
31771;BME280;18343;50.152;8.182;2023-03-01T13:35:46;97919.44;;;9.27;50.96
31771;BME280;18343;50.152;8.182;2023-03-01T13:38:44;97914.41;;;9.15;50.33
31771;BME280;18343;50.152;8.182;2023-03-01T13:41:50;97899.66;;;9.11;50.20
31771;BME280;18343;50.152;8.182;2023-03-01T13:44:37;97899.00;;;9.09;49.96
31771;BME280;18343;50.152;8.182;2023-03-01T13:47:22;97903.84;;;9.14;49.50
31771;BME280;18343;50.152;8.182;2023-03-01T13:50:16;97888.66;;;8.98;48.89
31771;BME280;18343;50.152;8.182;2023-03-01T13:53:06;97887.66;;;8.99;49.29
31771;BME280;18343;50.152;8.182;2023-03-01T13:55:55;97885.13;;;8.98;49.36
31771;BME280;18343;50.152;8.182;2023-03-01T13:58:53;97881.06;;;9.10;49.55
31771;BME280;18343;50.152;8.182;2023-03-01T14:01:38;97887.00;;;8.81;49.75
31771;BME280;18343;50.152;8.182;2023-03-01T14:04:29;97889.19;;;8.77;49.28
31771;BME280;18343;50.152;8.182;2023-03-01T14:07:21;97891.00;;;8.93;48.93
31771;BME280;18343;50.152;8.182;2023-03-01T14:10:11;97889.34;;;8.76;48.13
31771;BME280;18343;50.152;8.182;2023-03-01T14:13:03;97882.47;;;8.98;48.36
31771;BME280;18343;50.152;8.182;2023-03-01T14:16:13;97891.00;;;8.93;48.51
31771;BME280;18343;50.152;8.182;2023-03-01T14:19:14;97884.59;;;9.10;48.58
31771;BME280;18343;50.152;8.182;2023-03-01T14:22:05;97884.06;;;9.15;47.95
31771;BME280;18343;50.152;8.182;2023-03-01T14:24:58;97875.25;;;8.98;48.06
31771;BME280;18343;50.152;8.182;2023-03-01T14:27:44;97870.63;;;8.68;48.40
31771;BME280;18343;50.152;8.182;2023-03-01T14:30:44;97880.13;;;8.95;47.78
31771;BME280;18343;50.152;8.182;2023-03-01T14:33:31;97882.91;;;9.09;47.54
31771;BME280;18343;50.152;8.182;2023-03-01T14:36:25;97888.66;;;8.98;47.52
31771;BME280;18343;50.152;8.182;2023-03-01T14:39:17;97885.25;;;9.12;47.62
31771;BME280;18343;50.152;8.182;2023-03-01T14:42:08;97881.78;;;8.96;47.46
31771;BME280;18343;50.152;8.182;2023-03-01T14:44:55;97879.09;;;8.96;47.39
31771;BME280;18343;50.152;8.182;2023-03-01T14:47:43;97872.69;;;9.05;46.87
31771;BME280;18343;50.152;8.182;2023-03-01T14:50:31;97874.03;;;9.09;46.93
31771;BME280;18343;50.152;8.182;2023-03-01T14:53:20;97872.84;;;9.03;46.67
31771;BME280;18343;50.152;8.182;2023-03-01T14:56:13;97874.19;;;9.15;46.90
31771;BME280;18343;50.152;8.182;2023-03-01T14:58:58;97876.34;;;9.12;46.73
31771;BME280;18343;50.152;8.182;2023-03-01T15:01:44;97869.91;;;8.90;46.70
31771;BME280;18343;50.152;8.182;2023-03-01T15:04:30;97867.69;;;9.02;46.56
31771;BME280;18343;50.152;8.182;2023-03-01T15:07:15;97866.84;;;9.01;46.46
31771;BME280;18343;50.152;8.182;2023-03-01T15:10:03;97871.56;;;8.91;46.21
31771;BME280;18343;50.152;8.182;2023-03-01T15:12:48;97865.38;;;8.91;46.16
31771;BME280;18343;50.152;8.182;2023-03-01T15:15:39;97866.94;;;8.69;46.41
31771;BME280;18343;50.152;8.182;2023-03-01T15:18:28;97863.03;;;8.79;46.23
31771;BME280;18343;50.152;8.182;2023-03-01T15:21:18;97856.22;;;8.61;46.00
31771;BME280;18343;50.152;8.182;2023-03-01T15:24:13;97855.88;;;8.64;45.94
31771;BME280;18343;50.152;8.182;2023-03-01T15:27:00;97853.88;;;8.58;45.85
31771;BME280;18343;50.152;8.182;2023-03-01T15:29:57;97855.72;;;8.49;46.09
31771;BME280;18343;50.152;8.182;2023-03-01T15:32:42;97855.53;;;8.59;46.14
31771;BME280;18343;50.152;8.182;2023-03-01T15:35:41;97856.38;;;8.67;46.12
31771;BME280;18343;50.152;8.182;2023-03-01T15:38:51;97851.03;;;8.59;46.26